Aidamar — ICSJ — position and weather

sailwx.info

Track history (hours):
 
Tides and Currents Weather Stations Pressure Air Temp Water Temp Dewpoint Dewpoint Depression Visibility Wind Speed Wind Dir Waves Ship Positions

Aidamar

Last reported at 2014-Jul-23 22:33 UTC. Time now 2014-Jul-24 05:54 UTC.
Position N 59°33' E 021°13'.

Length 253 m; draft 7.3 m.

Type: Passenger vessel. MMSI: 247312900.

Date/timePositionNaut miles runAvg speedWind from/ knotsBaromVisibWave heightAir tempDewpointWater temp
2014-Jul-23 22:33N 59°33' E 021°13'1515.5
2014-Jul-23 21:33N 59°30' E 021°43'4915.4
2014-Jul-23 18:23N 59°36' E 023°19'1516.1
2014-Jul-23 17:27N 59°41' E 023°47'4114.0
2014-Jul-23 14:30N 60°05' E 024°54'4 0.5
2014-Jul-23 07:16N 60°09' E 024°55'0 0.0
2014-Jul-23 06:15N 60°09' E 024°55'0 0.1
2014-Jul-23 05:33N 60°09' E 024°55'5 5.4
2014-Jul-23 04:33N 60°04' E 024°54'2612.8
2014-Jul-23 02:34N 59°55' E 025°42'1615.9
2014-Jul-23 01:33N 59°59' E 026°13'1615.6
2014-Jul-23 00:34N 60°01' E 026°44'1515.3
2014-Jul-22 23:33N 60°03' E 027°14'8712.4
2014-Jul-22 16:33N 59°57' E 030°09'1 0.2
2014-Jul-22 10:06N 59°57' E 030°12'0 0.0
2014-Jul-22 08:29N 59°57' E 030°12'0 0.0
2014-Jul-22 07:33N 59°57' E 030°12'0 0.0
2014-Jul-22 06:28N 59°57' E 030°12'0 0.0
2014-Jul-22 03:33N 59°57' E 030°11'7512.4
2014-Jul-21 21:33N 60°10' E 027°45'1514.7
2014-Jul-21 20:33N 60°03' E 027°19'414.9
2014-Jul-21 20:18N 60°01' E 027°13'1114.2
2014-Jul-21 19:33N 59°59' E 026°52'1615.1
2014-Jul-21 18:31N 59°57' E 026°21'1515.4
2014-Jul-21 17:33N 59°52' E 025°53'42 3.4
2014-Jul-21 05:07N 59°28' E 024°45'610.2
2014-Jul-21 04:31N 59°30' E 024°33'1010.6
2014-Jul-21 03:33N 59°30' E 024°13'1515.3
2014-Jul-21 02:33N 59°30' E 023°43'1615.8
2014-Jul-21 01:33N 59°30' E 023°12'1514.7
2014-Jul-21 00:33N 59°27' E 022°44'2114.5
2014-Jul-20 23:04N 59°15' E 022°09'714.3
2014-Jul-20 22:33N 59°10' E 021°58'1414.2
2014-Jul-20 21:33N 59°00' E 021°38'1414.5
2014-Jul-20 20:33N 58°48' E 021°23'13815.2
2014-Jul-20 11:28N 56°57' E 018°50'1715.3
2014-Jul-20 10:23N 56°47' E 018°26'1315.5
2014-Jul-20 09:33N 56°39' E 018°07'1515.2
2014-Jul-20 08:33N 56°29' E 017°46'1515.1
2014-Jul-20 07:33N 56°20' E 017°25'1515.3
2014-Jul-20 06:33N 56°10' E 017°04'1515.2
2014-Jul-20 05:33N 56°02' E 016°40'1515.2
2014-Jul-20 04:33N 55°54' E 016°17'1515.1
2014-Jul-20 03:33N 55°47' E 015°53'1515.3
2014-Jul-20 02:33N 55°40' E 015°29'1615.6
2014-Jul-20 01:33N 55°33' E 015°04'1615.9
2014-Jul-20 00:33N 55°25' E 014°40'1615.6
2014-Jul-19 23:33N 55°13' E 014°23'1515.5
2014-Jul-19 22:33N 55°01' E 014°06'1515.5
2014-Jul-19 21:33N 54°55' E 013°41'1615.5
2014-Jul-19 20:33N 54°51' E 013°15'1515.2
2014-Jul-19 19:33N 54°47' E 012°49'1414.5
2014-Jul-19 18:33N 54°39' E 012°28'1413.9
2014-Jul-19 17:33N 54°28' E 012°14'1313.4
2014-Jul-19 16:34N 54°16' E 012°05'5 4.9
2014-Jul-19 15:33N 54°11' E 012°06'0 0.0
2014-Jul-19 14:30N 54°11' E 012°06'0 0.0
2014-Jul-19 13:31N 54°11' E 012°06'0 0.0
2014-Jul-19 11:31N 54°11' E 012°06'0 0.0
2014-Jul-19 10:30N 54°11' E 012°06'0 0.0
2014-Jul-19 09:33N 54°11' E 012°06'0 0.0
2014-Jul-19 08:32N 54°11' E 012°06'0 0.0
2014-Jul-19 07:31N 54°11' E 012°06'0 0.0
2014-Jul-19 06:31N 54°11' E 012°06'0 0.0
2014-Jul-19 05:31N 54°11' E 012°06'1 0.8
2014-Jul-19 04:33N 54°11' E 012°05'10 9.6
2014-Jul-19 03:33N 54°20' E 011°60'1312.6
2014-Jul-19 02:34N 54°31' E 012°12'1515.1
2014-Jul-19 01:33N 54°42' E 012°29'1615.7
2014-Jul-19 00:33N 54°49' E 012°53'1615.9
2014-Jul-18 23:33N 54°55' E 013°19'1615.9
2014-Jul-18 22:33N 55°00' E 013°45'1515.4
2014-Jul-18 21:33N 55°09' E 014°08'1616.2
2014-Jul-18 20:33N 55°21' E 014°27'1212.1
2014-Jul-18 19:33N 55°29' E 014°41'1514.8
2014-Jul-18 18:33N 55°37' E 015°04'1615.8
2014-Jul-18 17:33N 55°44' E 015°29'1615.9
2014-Jul-18 16:33N 55°52' E 015°54'1615.9
2014-Jul-18 15:33N 55°60' E 016°18'2115.7
2014-Jul-18 14:13N 56°13' E 016°47'4311.8
2014-Jul-18 10:33N 56°54' E 017°14'1616.3
2014-Jul-18 09:33N 57°09' E 017°25'1616.1
2014-Jul-18 08:33N 57°24' E 017°37'1616.0
2014-Jul-18 07:33N 57°38' E 017°51'1616.1
2014-Jul-18 06:33N 57°52' E 018°06'194 5.4
2014-Jul-16 18:29N 59°37' E 023°21'1615.7
2014-Jul-16 17:29N 59°42' E 023°50'1515.5
2014-Jul-16 16:30N 59°47' E 024°18'2613.3
2014-Jul-16 14:34N 60°06' E 024°54'3 3.0
2014-Jul-16 13:29N 60°09' E 024°55'0 0.0
2014-Jul-16 12:23N 60°09' E 024°55'0 0.0
2014-Jul-16 11:20N 60°09' E 024°55'0 0.0
2014-Jul-16 10:33N 60°09' E 024°55'0 0.0
2014-Jul-16 09:30N 60°09' E 024°55'0 0.0
2014-Jul-16 08:33N 60°09' E 024°55'0 0.0
2014-Jul-16 07:32N 60°09' E 024°55'0 0.0
2014-Jul-16 06:29N 60°09' E 024°55'0 0.0
2014-Jul-16 05:32N 60°09' E 024°55'4 4.3
2014-Jul-16 04:33N 60°05' E 024°54'4313.2
2014-Jul-16 01:17N 59°59' E 026°19'1415.8
2014-Jul-16 00:23N 60°00' E 026°48'9912.3
2014-Jul-15 16:22N 59°56' E 030°05'3 0.3
2014-Jul-15 03:24N 59°57' E 030°11'8412.3
2014-Jul-14 20:34N 60°05' E 027°24'1515.4
2014-Jul-14 19:34N 59°59' E 026°55'1615.8
2014-Jul-14 18:33N 59°58' E 026°24'1815.9
2014-Jul-14 17:24N 59°52' E 025°49'58 4.2
2014-Jul-14 03:31N 59°30' E 024°02'1515.6
2014-Jul-14 02:34N 59°31' E 023°33'2015.8
2014-Jul-14 01:16N 59°26' E 022°53'  
Track history (hours):
 
Tides and Currents Weather Stations Pressure Air Temp Water Temp Dewpoint Dewpoint Depression Visibility Wind Speed Wind Dir Waves Ship Positions

Aidamar

Last reported at 2014-Jul-23 22:33 UTC. Time now 2014-Jul-24 05:54 UTC.
Position N 59°33' E 021°13'.

Length 253 m; draft 7.3 m.

Type: Passenger vessel. MMSI: 247312900.

Date/timePositionNaut miles runAvg speedWind from/ knotsBaromVisibWave heightAir tempDewpointWater temp
2014-Jul-23 22:33N 59°33' E 021°13'1515.5
2014-Jul-23 21:33N 59°30' E 021°43'4915.4
2014-Jul-23 18:23N 59°36' E 023°19'1516.1
2014-Jul-23 17:27N 59°41' E 023°47'4114.0
2014-Jul-23 14:30N 60°05' E 024°54'4 0.5
2014-Jul-23 07:16N 60°09' E 024°55'0 0.0
2014-Jul-23 06:15N 60°09' E 024°55'0 0.1
2014-Jul-23 05:33N 60°09' E 024°55'5 5.4
2014-Jul-23 04:33N 60°04' E 024°54'2612.8
2014-Jul-23 02:34N 59°55' E 025°42'1615.9
2014-Jul-23 01:33N 59°59' E 026°13'1615.6
2014-Jul-23 00:34N 60°01' E 026°44'1515.3
2014-Jul-22 23:33N 60°03' E 027°14'8712.4
2014-Jul-22 16:33N 59°57' E 030°09'1 0.2
2014-Jul-22 10:06N 59°57' E 030°12'0 0.0
2014-Jul-22 08:29N 59°57' E 030°12'0 0.0
2014-Jul-22 07:33N 59°57' E 030°12'0 0.0
2014-Jul-22 06:28N 59°57' E 030°12'0 0.0
2014-Jul-22 03:33N 59°57' E 030°11'7512.4
2014-Jul-21 21:33N 60°10' E 027°45'1514.7
2014-Jul-21 20:33N 60°03' E 027°19'414.9
2014-Jul-21 20:18N 60°01' E 027°13'1114.2
2014-Jul-21 19:33N 59°59' E 026°52'1615.1
2014-Jul-21 18:31N 59°57' E 026°21'1515.4
2014-Jul-21 17:33N 59°52' E 025°53'42 3.4
2014-Jul-21 05:07N 59°28' E 024°45'610.2
2014-Jul-21 04:31N 59°30' E 024°33'1010.6
2014-Jul-21 03:33N 59°30' E 024°13'1515.3
2014-Jul-21 02:33N 59°30' E 023°43'1615.8
2014-Jul-21 01:33N 59°30' E 023°12'1514.7
2014-Jul-21 00:33N 59°27' E 022°44'2114.5
2014-Jul-20 23:04N 59°15' E 022°09'714.3
2014-Jul-20 22:33N 59°10' E 021°58'1414.2
2014-Jul-20 21:33N 59°00' E 021°38'1414.5
2014-Jul-20 20:33N 58°48' E 021°23'13815.2
2014-Jul-20 11:28N 56°57' E 018°50'1715.3
2014-Jul-20 10:23N 56°47' E 018°26'1315.5
2014-Jul-20 09:33N 56°39' E 018°07'1515.2
2014-Jul-20 08:33N 56°29' E 017°46'1515.1
2014-Jul-20 07:33N 56°20' E 017°25'1515.3
2014-Jul-20 06:33N 56°10' E 017°04'1515.2
2014-Jul-20 05:33N 56°02' E 016°40'1515.2
2014-Jul-20 04:33N 55°54' E 016°17'1515.1
2014-Jul-20 03:33N 55°47' E 015°53'1515.3
2014-Jul-20 02:33N 55°40' E 015°29'1615.6
2014-Jul-20 01:33N 55°33' E 015°04'1615.9
2014-Jul-20 00:33N 55°25' E 014°40'1615.6
2014-Jul-19 23:33N 55°13' E 014°23'1515.5
2014-Jul-19 22:33N 55°01' E 014°06'1515.5
2014-Jul-19 21:33N 54°55' E 013°41'1615.5
2014-Jul-19 20:33N 54°51' E 013°15'1515.2
2014-Jul-19 19:33N 54°47' E 012°49'1414.5
2014-Jul-19 18:33N 54°39' E 012°28'1413.9
2014-Jul-19 17:33N 54°28' E 012°14'1313.4
2014-Jul-19 16:34N 54°16' E 012°05'5 4.9
2014-Jul-19 15:33N 54°11' E 012°06'0 0.0
2014-Jul-19 14:30N 54°11' E 012°06'0 0.0
2014-Jul-19 13:31N 54°11' E 012°06'0 0.0
2014-Jul-19 11:31N 54°11' E 012°06'0 0.0
2014-Jul-19 10:30N 54°11' E 012°06'0 0.0
2014-Jul-19 09:33N 54°11' E 012°06'0 0.0
2014-Jul-19 08:32N 54°11' E 012°06'0 0.0
2014-Jul-19 07:31N 54°11' E 012°06'0 0.0
2014-Jul-19 06:31N 54°11' E 012°06'0 0.0
2014-Jul-19 05:31N 54°11' E 012°06'1 0.8
2014-Jul-19 04:33N 54°11' E 012°05'10 9.6
2014-Jul-19 03:33N 54°20' E 011°60'1312.6
2014-Jul-19 02:34N 54°31' E 012°12'1515.1
2014-Jul-19 01:33N 54°42' E 012°29'1615.7
2014-Jul-19 00:33N 54°49' E 012°53'1615.9
2014-Jul-18 23:33N 54°55' E 013°19'1615.9
2014-Jul-18 22:33N 55°00' E 013°45'1515.4
2014-Jul-18 21:33N 55°09' E 014°08'1616.2
2014-Jul-18 20:33N 55°21' E 014°27'1212.1
2014-Jul-18 19:33N 55°29' E 014°41'1514.8
2014-Jul-18 18:33N 55°37' E 015°04'1615.8
2014-Jul-18 17:33N 55°44' E 015°29'1615.9
2014-Jul-18 16:33N 55°52' E 015°54'1615.9
2014-Jul-18 15:33N 55°60' E 016°18'2115.7
2014-Jul-18 14:13N 56°13' E 016°47'4311.8
2014-Jul-18 10:33N 56°54' E 017°14'1616.3
2014-Jul-18 09:33N 57°09' E 017°25'1616.1
2014-Jul-18 08:33N 57°24' E 017°37'1616.0
2014-Jul-18 07:33N 57°38' E 017°51'1616.1
2014-Jul-18 06:33N 57°52' E 018°06'194 5.4
2014-Jul-16 18:29N 59°37' E 023°21'1615.7
2014-Jul-16 17:29N 59°42' E 023°50'1515.5
2014-Jul-16 16:30N 59°47' E 024°18'2613.3
2014-Jul-16 14:34N 60°06' E 024°54'3 3.0
2014-Jul-16 13:29N 60°09' E 024°55'0 0.0
2014-Jul-16 12:23N 60°09' E 024°55'0 0.0
2014-Jul-16 11:20N 60°09' E 024°55'0 0.0
2014-Jul-16 10:33N 60°09' E 024°55'0 0.0
2014-Jul-16 09:30N 60°09' E 024°55'0 0.0
2014-Jul-16 08:33N 60°09' E 024°55'0 0.0
2014-Jul-16 07:32N 60°09' E 024°55'0 0.0
2014-Jul-16 06:29N 60°09' E 024°55'0 0.0
2014-Jul-16 05:32N 60°09' E 024°55'4 4.3
2014-Jul-16 04:33N 60°05' E 024°54'4313.2
2014-Jul-16 01:17N 59°59' E 026°19'1415.8
2014-Jul-16 00:23N 60°00' E 026°48'9912.3
2014-Jul-15 16:22N 59°56' E 030°05'3 0.3
2014-Jul-15 03:24N 59°57' E 030°11'8412.3
2014-Jul-14 20:34N 60°05' E 027°24'1515.4
2014-Jul-14 19:34N 59°59' E 026°55'1615.8
2014-Jul-14 18:33N 59°58' E 026°24'1815.9
2014-Jul-14 17:24N 59°52' E 025°49'58 4.2
2014-Jul-14 03:31N 59°30' E 024°02'1515.6
2014-Jul-14 02:34N 59°31' E 023°33'2015.8
2014-Jul-14 01:16N 59°26' E 022°53'  

Dump ship's entire track history